createdAt,value
2023-02-13T00:01:27.076Z,6.80
2023-02-13T00:11:29.716Z,6.97
2023-02-13T00:21:33.715Z,6.97
2023-02-13T00:31:36.431Z,6.28
2023-02-13T00:41:40.629Z,6.60
2023-02-13T00:51:43.280Z,7.13
2023-02-13T01:01:47.275Z,7.03
2023-02-13T01:11:49.938Z,6.90
2023-02-13T01:21:53.939Z,7.47
2023-02-13T01:31:56.602Z,7.45
2023-02-13T01:42:00.636Z,7.78
2023-02-13T01:52:03.498Z,7.45
2023-02-13T02:02:07.789Z,7.93
2023-02-13T02:12:14.567Z,7.60
2023-02-13T02:23:07.872Z,6.88
2023-02-13T02:33:22.582Z,7.55
2023-02-13T02:43:34.810Z,7.47
2023-02-13T02:53:42.946Z,8.25
2023-02-13T03:04:13.220Z,8.18
2023-02-13T03:14:22.103Z,7.45
2023-02-13T03:24:30.256Z,8.45
2023-02-13T03:34:52.040Z,8.52
2023-02-13T03:45:11.806Z,7.82
2023-02-13T03:55:35.572Z,8.60
2023-02-13T04:05:42.290Z,8.50
2023-02-13T04:15:51.419Z,8.90
2023-02-13T04:25:56.637Z,9.07
2023-02-13T04:36:00.601Z,8.43
2023-02-13T04:46:03.235Z,9.13
2023-02-13T04:56:07.754Z,8.23
2023-02-13T05:06:12.475Z,8.60
2023-02-13T05:16:17.543Z,8.65
2023-02-13T05:26:20.156Z,8.85
2023-02-13T05:36:24.080Z,9.30
2023-02-13T05:46:27.063Z,9.30
2023-02-13T05:56:31.042Z,9.43
2023-02-13T06:06:33.732Z,9.18
2023-02-13T06:16:37.807Z,9.30
2023-02-13T06:26:40.475Z,8.77
2023-02-13T06:36:44.446Z,10.23
2023-02-13T06:46:47.139Z,8.45
2023-02-13T06:56:51.157Z,8.30
2023-02-13T07:06:55.842Z,9.43
2023-02-13T07:16:59.969Z,9.98
2023-02-13T07:27:02.632Z,9.00
2023-02-13T07:37:06.580Z,11.98
2023-02-13T07:47:09.508Z,10.55
2023-02-13T07:57:13.781Z,9.77
2023-02-13T08:07:17.774Z,9.55
2023-02-13T08:17:21.745Z,9.68
2023-02-13T08:27:24.622Z,10.93
2023-02-13T08:37:28.575Z,11.40
2023-02-13T08:47:31.169Z,10.73
2023-02-13T08:57:35.140Z,10.15
2023-02-13T09:07:37.775Z,10.40
2023-02-13T09:17:41.760Z,10.63
2023-02-13T09:27:44.393Z,11.90
2023-02-13T09:37:48.538Z,9.73
2023-02-13T09:47:51.587Z,10.48
2023-02-13T09:58:02.064Z,9.95
2023-02-13T10:08:16.536Z,9.77
2023-02-13T10:18:24.454Z,10.43
2023-02-13T10:28:35.143Z,10.75
2023-02-13T10:38:44.383Z,9.50
2023-02-13T10:49:02.433Z,9.85
2023-02-13T10:59:21.587Z,11.05
2023-02-13T11:09:24.865Z,10.20
2023-02-13T11:19:32.430Z,10.43
2023-02-13T11:29:36.770Z,9.38
2023-02-13T11:39:42.225Z,9.35
2023-02-13T11:49:48.098Z,9.45
2023-02-13T11:59:53.949Z,9.40
2023-02-13T12:10:02.890Z,9.50
2023-02-13T12:20:14.468Z,9.20
2023-02-13T12:30:49.822Z,10.63
2023-02-13T12:41:06.365Z,9.68
2023-02-13T12:51:23.512Z,9.38
2023-02-13T13:01:45.464Z,9.45
2023-02-13T13:12:17.181Z,9.52
2023-02-13T13:22:27.470Z,9.45
2023-02-13T13:32:31.927Z,9.98
2023-02-13T13:42:42.976Z,9.23
2023-02-13T13:53:07.116Z,10.55
2023-02-13T14:03:38.956Z,10.77
2023-02-13T14:13:42.133Z,10.98
2023-02-13T14:23:53.278Z,11.27
2023-02-13T14:33:58.584Z,13.75
2023-02-13T14:44:03.029Z,12.27
2023-02-13T14:54:10.980Z,14.27
2023-02-13T15:04:20.110Z,16.10
2023-02-13T15:14:26.243Z,14.40
2023-02-13T15:24:37.637Z,14.93
2023-02-13T15:34:47.326Z,16.50
2023-02-13T15:44:55.872Z,15.60
2023-02-13T15:54:59.318Z,16.08
2023-02-13T16:05:03.787Z,14.93
2023-02-13T16:15:08.565Z,15.95
2023-02-13T16:25:19.313Z,16.50
2023-02-13T16:35:30.468Z,17.42
2023-02-13T16:45:34.616Z,17.48
2023-02-13T16:55:37.435Z,18.27
2023-02-13T17:05:41.546Z,17.83
2023-02-13T17:15:46.062Z,18.10
2023-02-13T17:25:52.524Z,17.30
2023-02-13T17:35:55.694Z,17.80
2023-02-13T17:46:01.181Z,18.13
2023-02-13T17:56:04.333Z,16.95
2023-02-13T18:06:12.548Z,19.48
2023-02-13T18:16:15.882Z,19.23
2023-02-13T18:26:20.132Z,18.85
2023-02-13T18:36:22.993Z,17.08
2023-02-13T18:46:27.434Z,17.73
2023-02-13T18:56:30.234Z,17.70
2023-02-13T19:06:34.953Z,20.95
2023-02-13T19:16:37.632Z,18.98
2023-02-13T19:26:41.736Z,23.92
2023-02-13T19:36:44.637Z,21.88
2023-02-13T19:46:48.991Z,24.13
2023-02-13T19:56:54.623Z,19.85
2023-02-13T20:06:59.028Z,18.98
2023-02-13T20:17:01.811Z,18.98
2023-02-13T20:27:05.856Z,19.55
2023-02-13T20:37:08.491Z,18.17
2023-02-13T20:47:12.548Z,14.48
2023-02-13T20:57:15.736Z,13.57
2023-02-13T21:07:19.862Z,10.15
2023-02-13T21:17:22.546Z,8.43
2023-02-13T21:27:27.396Z,11.88
2023-02-13T21:37:30.440Z,14.45
2023-02-13T21:47:34.385Z,8.88
2023-02-13T21:57:36.974Z,11.07
2023-02-13T22:07:54.888Z,12.10
2023-02-13T22:17:57.659Z,19.73
2023-02-13T22:28:01.656Z,25.02
2023-02-13T22:38:04.283Z,18.55
2023-02-13T22:48:08.993Z,16.70
2023-02-13T22:58:11.954Z,14.40
2023-02-13T23:08:15.988Z,12.25
2023-02-13T23:18:18.637Z,14.10
2023-02-13T23:28:22.652Z,10.52
2023-02-13T23:38:25.567Z,12.45
2023-02-13T23:48:29.610Z,13.70
2023-02-13T23:58:32.316Z,12.63
